Aeroporto :
LOGIN :

Iscrizione | Disclaimer

   EN    FR    IT 

 










Sommario :    VFR   VFR Marginale   IFR   IFR Intensivo   IFR Molto Intensivo
Visibilità : 
Base nubi : 
>= 8 km
>= 3000ft
5 / 8 km
1000 / 3000 ft
1500m / 5 km
500 / 1000 ft
800 / 1500m
200 / 500 ft
< 800m
< 200 ft
Simboli :   Temporali  Nebbia  Neve Forte  Precipitazioni Forti  Vento > 20 kt
SIGMETs :   Varie  Temporali  Ghiacco  Turbolenza  Onda orograficha  Ceneri Vulcaniche







- Altitudine del aeroporto : 2096 ft
- Codice IATA : AUR
- Carte del aeroporto


LFLW - Aurillac

ULTIMO METAR :
  • 181500Z AUTO 25008KT 220V290 9999 BKN047/// BKN064/// BKN082/// ///CB 27/18 Q1014 TEMPO 30025G40KT 3000 TSRA BKN014 BKN040CB

METARs OBSOLETI :
  • 181430Z AUTO 24006KT 200V270 9999 BKN047 BKN054 BKN078 27/17 Q1014 TEMPO 30025G40KT 3000 TSRA BKN014 BKN040CB
  • 181400Z AUTO 22007KT 170V270 9999 FEW047 28/17 Q1014 TEMPO 28025G40KT 3000 TSRA BKN014 BKN040CB
  • 181330Z AUTO 23007KT 180V280 9999 SCT048 28/17 Q1014 TEMPO 28025G40KT 3000 TSRA BKN014 BKN040CB
  • 181300Z AUTO 21006KT 150V280 9999 BKN047 28/16 Q1014 TEMPO 28025G40KT 3000 TSRA BKN014 BKN040CB
  • 181230Z AUTO 23007KT 180V270 9999 BKN044 BKN050 28/17 Q1014 TEMPO 28025G40KT 3000 TSRA BKN014 BKN040CB
  • 181200Z AUTO 21006KT 170V270 9999 BKN047 BKN054 28/17 Q1014 BECMG FEW045CB

TAF TAF LFLW
Valido dal 18 a 15 ore il 19 a 00 ore UTC


181400Z 1815/1824 25008G18KT 9999 FEW045CB
PROB40
TEMPO 1815/1819 30025G40KT 3000 TSRA BKN014 BKN040CB
TEMPO 1819/1824 30020G35KT 4000 SHRA BKN012 FEW045CB BKN050TCU
Nessun NOTAM noto per questo aeroporto.



MetMap, La meteo Aeronautica in un colpo d'occhio ! - Copyright ORBIFLY Dicembre 2007 - Disclaimer

ORBIFLY MET'MAP TEAM :

Programmazione e sviluppo : Alexandra Zaïnal
Concezione e sviluppo : Baudouin d'Aumeries
Co-Programmazione e sviluppo : Marc-Olivier Méhu
Supporto tecnico e logistico : Manuel Goepfert
Aiuto per la traduzione : Arnaldo La Scala

Contatto : metmap@orbifly.com




FONTI E CREDITI :

   NOAA